sensor_id;sensor_type;location;lat;lon;timestamp;P1;durP1;ratioP1;P2;durP2;ratioP2
54157;SDS011;40065;49.894;10.358;2023-06-22T00:04:08;7.38;;;5.97;;
54157;SDS011;40065;49.894;10.358;2023-06-22T00:09:10;6.10;;;5.50;;
54157;SDS011;40065;49.894;10.358;2023-06-22T00:14:12;6.80;;;6.05;;
54157;SDS011;40065;49.894;10.358;2023-06-22T00:19:17;7.35;;;5.95;;
54157;SDS011;40065;49.894;10.358;2023-06-22T00:24:21;7.90;;;6.30;;
54157;SDS011;40065;49.894;10.358;2023-06-22T00:29:23;9.05;;;7.93;;
54157;SDS011;40065;49.894;10.358;2023-06-22T00:34:26;14.02;;;9.43;;
54157;SDS011;40065;49.894;10.358;2023-06-22T00:39:28;13.15;;;10.93;;
54157;SDS011;40065;49.894;10.358;2023-06-22T00:44:29;10.52;;;8.73;;
54157;SDS011;40065;49.894;10.358;2023-06-22T00:49:31;8.23;;;6.45;;
54157;SDS011;40065;49.894;10.358;2023-06-22T00:54:33;12.57;;;9.77;;
54157;SDS011;40065;49.894;10.358;2023-06-22T00:59:36;11.30;;;9.23;;
54157;SDS011;40065;49.894;10.358;2023-06-22T01:04:38;14.07;;;9.00;;
54157;SDS011;40065;49.894;10.358;2023-06-22T01:10:00;10.27;;;7.50;;
54157;SDS011;40065;49.894;10.358;2023-06-22T01:15:15;11.65;;;8.32;;
54157;SDS011;40065;49.894;10.358;2023-06-22T01:20:29;9.20;;;7.85;;
54157;SDS011;40065;49.894;10.358;2023-06-22T01:25:43;17.33;;;10.40;;
54157;SDS011;40065;49.894;10.358;2023-06-22T01:30:55;9.43;;;7.35;;
54157;SDS011;40065;49.894;10.358;2023-06-22T01:36:06;13.40;;;9.65;;
54157;SDS011;40065;49.894;10.358;2023-06-22T01:41:10;11.00;;;8.15;;
54157;SDS011;40065;49.894;10.358;2023-06-22T01:46:13;10.07;;;8.20;;
54157;SDS011;40065;49.894;10.358;2023-06-22T01:51:16;11.53;;;8.97;;
54157;SDS011;40065;49.894;10.358;2023-06-22T01:56:18;8.85;;;6.70;;
54157;SDS011;40065;49.894;10.358;2023-06-22T02:01:22;9.50;;;5.65;;
54157;SDS011;40065;49.894;10.358;2023-06-22T02:06:30;9.98;;;7.40;;
54157;SDS011;40065;49.894;10.358;2023-06-22T02:11:38;7.47;;;6.30;;
54157;SDS011;40065;49.894;10.358;2023-06-22T02:16:43;11.75;;;8.75;;
54157;SDS011;40065;49.894;10.358;2023-06-22T02:21:46;18.58;;;14.25;;
54157;SDS011;40065;49.894;10.358;2023-06-22T02:26:48;20.33;;;16.52;;
54157;SDS011;40065;49.894;10.358;2023-06-22T02:31:50;19.25;;;14.32;;
54157;SDS011;40065;49.894;10.358;2023-06-22T02:36:53;17.10;;;13.63;;
54157;SDS011;40065;49.894;10.358;2023-06-22T02:41:55;21.33;;;16.88;;
54157;SDS011;40065;49.894;10.358;2023-06-22T02:46:57;14.05;;;10.70;;
54157;SDS011;40065;49.894;10.358;2023-06-22T02:51:59;22.08;;;18.60;;
54157;SDS011;40065;49.894;10.358;2023-06-22T02:57:01;22.85;;;18.35;;
54157;SDS011;40065;49.894;10.358;2023-06-22T03:02:04;28.20;;;20.50;;
54157;SDS011;40065;49.894;10.358;2023-06-22T03:07:07;25.65;;;19.73;;
54157;SDS011;40065;49.894;10.358;2023-06-22T03:12:09;24.00;;;20.23;;
54157;SDS011;40065;49.894;10.358;2023-06-22T03:17:28;23.52;;;20.00;;
54157;SDS011;40065;49.894;10.358;2023-06-22T03:22:30;22.13;;;18.85;;
54157;SDS011;40065;49.894;10.358;2023-06-22T03:27:31;19.80;;;16.67;;
54157;SDS011;40065;49.894;10.358;2023-06-22T03:32:33;14.77;;;13.18;;
54157;SDS011;40065;49.894;10.358;2023-06-22T03:37:35;14.45;;;11.05;;
54157;SDS011;40065;49.894;10.358;2023-06-22T03:42:37;14.05;;;12.55;;
54157;SDS011;40065;49.894;10.358;2023-06-22T03:47:39;12.60;;;11.07;;
54157;SDS011;40065;49.894;10.358;2023-06-22T03:52:43;9.70;;;7.80;;
54157;SDS011;40065;49.894;10.358;2023-06-22T03:57:45;12.10;;;9.77;;
54157;SDS011;40065;49.894;10.358;2023-06-22T04:02:47;15.13;;;11.88;;
54157;SDS011;40065;49.894;10.358;2023-06-22T04:07:48;13.82;;;11.57;;
54157;SDS011;40065;49.894;10.358;2023-06-22T04:12:50;14.95;;;13.02;;
54157;SDS011;40065;49.894;10.358;2023-06-22T04:17:54;14.13;;;12.07;;
54157;SDS011;40065;49.894;10.358;2023-06-22T04:22:56;16.52;;;13.50;;
54157;SDS011;40065;49.894;10.358;2023-06-22T04:27:58;18.67;;;14.55;;
54157;SDS011;40065;49.894;10.358;2023-06-22T04:33:00;24.60;;;14.02;;
54157;SDS011;40065;49.894;10.358;2023-06-22T04:38:02;17.88;;;14.55;;
54157;SDS011;40065;49.894;10.358;2023-06-22T04:43:05;16.75;;;14.25;;
54157;SDS011;40065;49.894;10.358;2023-06-22T04:48:07;15.95;;;13.20;;
54157;SDS011;40065;49.894;10.358;2023-06-22T04:53:11;19.58;;;13.52;;
54157;SDS011;40065;49.894;10.358;2023-06-22T04:58:14;18.13;;;13.20;;
54157;SDS011;40065;49.894;10.358;2023-06-22T05:03:16;17.02;;;12.68;;
54157;SDS011;40065;49.894;10.358;2023-06-22T05:08:21;13.50;;;12.07;;
54157;SDS011;40065;49.894;10.358;2023-06-22T05:13:23;15.85;;;11.70;;
54157;SDS011;40065;49.894;10.358;2023-06-22T05:18:30;15.32;;;11.95;;
54157;SDS011;40065;49.894;10.358;2023-06-22T05:23:33;13.38;;;10.18;;
54157;SDS011;40065;49.894;10.358;2023-06-22T05:28:35;13.13;;;10.15;;
54157;SDS011;40065;49.894;10.358;2023-06-22T05:33:36;9.57;;;8.57;;
54157;SDS011;40065;49.894;10.358;2023-06-22T05:38:39;12.43;;;11.10;;
54157;SDS011;40065;49.894;10.358;2023-06-22T05:43:41;15.15;;;11.20;;
54157;SDS011;40065;49.894;10.358;2023-06-22T05:48:43;11.95;;;10.20;;
54157;SDS011;40065;49.894;10.358;2023-06-22T05:53:45;13.70;;;11.40;;
54157;SDS011;40065;49.894;10.358;2023-06-22T05:58:50;11.70;;;9.77;;
54157;SDS011;40065;49.894;10.358;2023-06-22T06:03:52;11.88;;;10.63;;
54157;SDS011;40065;49.894;10.358;2023-06-22T06:08:54;13.50;;;11.23;;
54157;SDS011;40065;49.894;10.358;2023-06-22T06:13:56;19.23;;;10.75;;
54157;SDS011;40065;49.894;10.358;2023-06-22T06:18:58;13.23;;;11.68;;
54157;SDS011;40065;49.894;10.358;2023-06-22T06:24:00;16.45;;;11.20;;
54157;SDS011;40065;49.894;10.358;2023-06-22T06:29:02;10.68;;;9.57;;
54157;SDS011;40065;49.894;10.358;2023-06-22T06:34:04;13.53;;;10.70;;
54157;SDS011;40065;49.894;10.358;2023-06-22T06:39:06;12.30;;;10.13;;
54157;SDS011;40065;49.894;10.358;2023-06-22T06:44:08;14.15;;;10.35;;
54157;SDS011;40065;49.894;10.358;2023-06-22T06:49:10;11.75;;;9.77;;
54157;SDS011;40065;49.894;10.358;2023-06-22T06:54:12;11.80;;;8.23;;
54157;SDS011;40065;49.894;10.358;2023-06-22T06:59:14;11.15;;;7.63;;
54157;SDS011;40065;49.894;10.358;2023-06-22T07:04:16;9.32;;;8.30;;
54157;SDS011;40065;49.894;10.358;2023-06-22T07:09:18;12.43;;;7.30;;
54157;SDS011;40065;49.894;10.358;2023-06-22T07:14:20;8.50;;;7.30;;
54157;SDS011;40065;49.894;10.358;2023-06-22T07:19:25;6.67;;;5.97;;
54157;SDS011;40065;49.894;10.358;2023-06-22T07:24:28;8.80;;;7.00;;
54157;SDS011;40065;49.894;10.358;2023-06-22T07:29:30;8.35;;;7.30;;
54157;SDS011;40065;49.894;10.358;2023-06-22T07:34:33;8.15;;;6.07;;
54157;SDS011;40065;49.894;10.358;2023-06-22T07:39:35;7.37;;;6.67;;
54157;SDS011;40065;49.894;10.358;2023-06-22T07:44:38;7.88;;;6.82;;
54157;SDS011;40065;49.894;10.358;2023-06-22T07:49:40;10.87;;;6.77;;
54157;SDS011;40065;49.894;10.358;2023-06-22T07:54:42;7.20;;;6.50;;
54157;SDS011;40065;49.894;10.358;2023-06-22T07:59:44;7.40;;;6.70;;
54157;SDS011;40065;49.894;10.358;2023-06-22T08:09:48;8.98;;;6.78;;
54157;SDS011;40065;49.894;10.358;2023-06-22T08:14:50;8.43;;;7.15;;
54157;SDS011;40065;49.894;10.358;2023-06-22T08:19:52;10.03;;;7.13;;
54157;SDS011;40065;49.894;10.358;2023-06-22T08:24:54;9.17;;;7.03;;
54157;SDS011;40065;49.894;10.358;2023-06-22T08:29:56;8.77;;;6.93;;
54157;SDS011;40065;49.894;10.358;2023-06-22T08:35:00;8.73;;;6.85;;
54157;SDS011;40065;49.894;10.358;2023-06-22T08:40:02;7.60;;;6.30;;
54157;SDS011;40065;49.894;10.358;2023-06-22T08:45:10;7.82;;;6.15;;
54157;SDS011;40065;49.894;10.358;2023-06-22T08:50:13;7.30;;;5.85;;
54157;SDS011;40065;49.894;10.358;2023-06-22T08:55:15;8.55;;;6.05;;
54157;SDS011;40065;49.894;10.358;2023-06-22T09:00:17;7.28;;;6.05;;
54157;SDS011;40065;49.894;10.358;2023-06-22T09:05:21;8.43;;;5.65;;
54157;SDS011;40065;49.894;10.358;2023-06-22T09:10:23;5.53;;;4.70;;
54157;SDS011;40065;49.894;10.358;2023-06-22T09:15:25;6.13;;;5.40;;
54157;SDS011;40065;49.894;10.358;2023-06-22T09:20:27;7.78;;;5.35;;
54157;SDS011;40065;49.894;10.358;2023-06-22T09:25:29;7.82;;;5.05;;
54157;SDS011;40065;49.894;10.358;2023-06-22T09:35:33;5.90;;;5.07;;
54157;SDS011;40065;49.894;10.358;2023-06-22T09:40:35;6.68;;;4.80;;
54157;SDS011;40065;49.894;10.358;2023-06-22T09:45:41;6.03;;;4.85;;
54157;SDS011;40065;49.894;10.358;2023-06-22T09:55:45;6.90;;;4.00;;
54157;SDS011;40065;49.894;10.358;2023-06-22T10:00:47;6.07;;;4.53;;
54157;SDS011;40065;49.894;10.358;2023-06-22T10:10:50;5.87;;;3.93;;
54157;SDS011;40065;49.894;10.358;2023-06-22T10:15:54;5.53;;;3.80;;
54157;SDS011;40065;49.894;10.358;2023-06-22T10:20:56;5.93;;;4.13;;
54157;SDS011;40065;49.894;10.358;2023-06-22T10:31:00;7.68;;;4.22;;
54157;SDS011;40065;49.894;10.358;2023-06-22T10:36:02;8.55;;;4.03;;
54157;SDS011;40065;49.894;10.358;2023-06-22T10:41:04;6.35;;;3.80;;
54157;SDS011;40065;49.894;10.358;2023-06-22T10:46:06;5.20;;;3.50;;
54157;SDS011;40065;49.894;10.358;2023-06-22T10:51:08;10.35;;;4.05;;
54157;SDS011;40065;49.894;10.358;2023-06-22T10:56:10;7.40;;;3.97;;
54157;SDS011;40065;49.894;10.358;2023-06-22T11:06:34;5.70;;;3.58;;
54157;SDS011;40065;49.894;10.358;2023-06-22T11:16:38;7.15;;;4.07;;
54157;SDS011;40065;49.894;10.358;2023-06-22T11:21:40;6.93;;;3.42;;
54157;SDS011;40065;49.894;10.358;2023-06-22T11:31:43;7.50;;;3.50;;
54157;SDS011;40065;49.894;10.358;2023-06-22T11:41:49;6.07;;;3.55;;
54157;SDS011;40065;49.894;10.358;2023-06-22T11:51:53;8.57;;;4.13;;
54157;SDS011;40065;49.894;10.358;2023-06-22T11:56:55;12.00;;;4.22;;
54157;SDS011;40065;49.894;10.358;2023-06-22T12:01:57;7.68;;;3.95;;
54157;SDS011;40065;49.894;10.358;2023-06-22T12:07:00;8.82;;;4.13;;
54157;SDS011;40065;49.894;10.358;2023-06-22T12:12:02;7.35;;;3.83;;
54157;SDS011;40065;49.894;10.358;2023-06-22T12:17:04;5.57;;;4.00;;
54157;SDS011;40065;49.894;10.358;2023-06-22T12:22:06;9.68;;;4.30;;
54157;SDS011;40065;49.894;10.358;2023-06-22T12:27:08;9.18;;;4.47;;
54157;SDS011;40065;49.894;10.358;2023-06-22T12:32:11;10.00;;;4.60;;
54157;SDS011;40065;49.894;10.358;2023-06-22T12:37:16;11.23;;;4.35;;
54157;SDS011;40065;49.894;10.358;2023-06-22T12:42:18;6.63;;;3.78;;
54157;SDS011;40065;49.894;10.358;2023-06-22T12:47:20;9.80;;;4.80;;
54157;SDS011;40065;49.894;10.358;2023-06-22T12:57:23;9.50;;;4.32;;
54157;SDS011;40065;49.894;10.358;2023-06-22T13:02:26;11.48;;;4.78;;
54157;SDS011;40065;49.894;10.358;2023-06-22T13:07:28;9.48;;;4.10;;
54157;SDS011;40065;49.894;10.358;2023-06-22T13:12:30;7.70;;;4.10;;
54157;SDS011;40065;49.894;10.358;2023-06-22T13:17:32;8.70;;;4.28;;
54157;SDS011;40065;49.894;10.358;2023-06-22T13:27:44;8.90;;;3.83;;
54157;SDS011;40065;49.894;10.358;2023-06-22T13:32:46;11.00;;;4.45;;
54157;SDS011;40065;49.894;10.358;2023-06-22T13:37:48;10.73;;;4.53;;
54157;SDS011;40065;49.894;10.358;2023-06-22T13:42:50;10.60;;;4.32;;
54157;SDS011;40065;49.894;10.358;2023-06-22T13:47:55;11.27;;;4.20;;
54157;SDS011;40065;49.894;10.358;2023-06-22T13:52:58;16.65;;;4.80;;
54157;SDS011;40065;49.894;10.358;2023-06-22T14:03:01;6.82;;;4.32;;
54157;SDS011;40065;49.894;10.358;2023-06-22T14:08:06;16.15;;;4.80;;
54157;SDS011;40065;49.894;10.358;2023-06-22T14:13:30;9.68;;;4.18;;
54157;SDS011;40065;49.894;10.358;2023-06-22T14:18:32;11.68;;;4.47;;
54157;SDS011;40065;49.894;10.358;2023-06-22T14:23:35;10.13;;;4.43;;
54157;SDS011;40065;49.894;10.358;2023-06-22T14:28:36;14.13;;;5.10;;
54157;SDS011;40065;49.894;10.358;2023-06-22T14:33:38;7.60;;;4.57;;
54157;SDS011;40065;49.894;10.358;2023-06-22T14:38:40;8.27;;;4.30;;
54157;SDS011;40065;49.894;10.358;2023-06-22T14:43:45;9.13;;;4.43;;
54157;SDS011;40065;49.894;10.358;2023-06-22T14:48:48;11.30;;;4.40;;
54157;SDS011;40065;49.894;10.358;2023-06-22T14:53:50;13.15;;;4.90;;
54157;SDS011;40065;49.894;10.358;2023-06-22T14:58:52;11.35;;;4.80;;
54157;SDS011;40065;49.894;10.358;2023-06-22T15:03:54;8.98;;;4.15;;
54157;SDS011;40065;49.894;10.358;2023-06-22T15:08:56;12.45;;;4.13;;
54157;SDS011;40065;49.894;10.358;2023-06-22T15:18:59;7.43;;;4.38;;
54157;SDS011;40065;49.894;10.358;2023-06-22T15:29:04;12.50;;;4.45;;
54157;SDS011;40065;49.894;10.358;2023-06-22T15:34:06;15.30;;;4.72;;
54157;SDS011;40065;49.894;10.358;2023-06-22T15:39:08;11.68;;;4.03;;
54157;SDS011;40065;49.894;10.358;2023-06-22T15:44:11;12.93;;;4.22;;
54157;SDS011;40065;49.894;10.358;2023-06-22T15:49:13;11.00;;;3.88;;
54157;SDS011;40065;49.894;10.358;2023-06-22T15:59:17;9.48;;;3.50;;
54157;SDS011;40065;49.894;10.358;2023-06-22T16:04:19;11.60;;;3.40;;
54157;SDS011;40065;49.894;10.358;2023-06-22T16:14:23;12.17;;;4.33;;
54157;SDS011;40065;49.894;10.358;2023-06-22T16:19:24;12.73;;;4.15;;
54157;SDS011;40065;49.894;10.358;2023-06-22T16:29:29;12.50;;;3.30;;
54157;SDS011;40065;49.894;10.358;2023-06-22T16:34:30;11.93;;;2.97;;
54157;SDS011;40065;49.894;10.358;2023-06-22T16:39:32;15.98;;;3.25;;
54157;SDS011;40065;49.894;10.358;2023-06-22T16:44:34;11.80;;;3.58;;
54157;SDS011;40065;49.894;10.358;2023-06-22T16:49:36;14.65;;;4.22;;
54157;SDS011;40065;49.894;10.358;2023-06-22T17:00:00;13.95;;;3.33;;
54157;SDS011;40065;49.894;10.358;2023-06-22T17:05:02;12.95;;;3.45;;
54157;SDS011;40065;49.894;10.358;2023-06-22T17:10:07;14.65;;;3.75;;
54157;SDS011;40065;49.894;10.358;2023-06-22T17:15:10;9.35;;;3.28;;
54157;SDS011;40065;49.894;10.358;2023-06-22T17:20:13;15.32;;;3.10;;
54157;SDS011;40065;49.894;10.358;2023-06-22T17:25:15;13.70;;;3.22;;
54157;SDS011;40065;49.894;10.358;2023-06-22T17:30:20;12.63;;;3.08;;
54157;SDS011;40065;49.894;10.358;2023-06-22T17:35:22;13.02;;;3.10;;
54157;SDS011;40065;49.894;10.358;2023-06-22T17:40:25;13.63;;;3.43;;
54157;SDS011;40065;49.894;10.358;2023-06-22T17:45:28;11.60;;;3.63;;
54157;SDS011;40065;49.894;10.358;2023-06-22T17:50:29;13.40;;;3.07;;
54157;SDS011;40065;49.894;10.358;2023-06-22T17:55:32;12.48;;;3.00;;
54157;SDS011;40065;49.894;10.358;2023-06-22T18:05:37;11.52;;;2.95;;
54157;SDS011;40065;49.894;10.358;2023-06-22T18:10:40;9.32;;;2.70;;
54157;SDS011;40065;49.894;10.358;2023-06-22T18:15:43;13.55;;;3.00;;
54157;SDS011;40065;49.894;10.358;2023-06-22T18:20:45;12.25;;;3.33;;
54157;SDS011;40065;49.894;10.358;2023-06-22T18:25:49;8.00;;;2.70;;
54157;SDS011;40065;49.894;10.358;2023-06-22T18:35:54;12.38;;;3.25;;
54157;SDS011;40065;49.894;10.358;2023-06-22T18:40:57;12.82;;;3.17;;
54157;SDS011;40065;49.894;10.358;2023-06-22T18:46:27;9.73;;;3.58;;
54157;SDS011;40065;49.894;10.358;2023-06-22T18:52:39;10.43;;;3.40;;
54157;SDS011;40065;49.894;10.358;2023-06-22T18:57:13;12.95;;;3.30;;
54157;SDS011;40065;49.894;10.358;2023-06-22T19:02:40;9.70;;;3.30;;
54157;SDS011;40065;49.894;10.358;2023-06-22T19:12:56;13.55;;;3.90;;
54157;SDS011;40065;49.894;10.358;2023-06-22T19:18:00;11.20;;;3.33;;
54157;SDS011;40065;49.894;10.358;2023-06-22T19:29:00;8.45;;;3.70;;
54157;SDS011;40065;49.894;10.358;2023-06-22T19:34:03;11.02;;;3.72;;
54157;SDS011;40065;49.894;10.358;2023-06-22T19:39:06;9.07;;;3.97;;
54157;SDS011;40065;49.894;10.358;2023-06-22T19:44:08;11.93;;;3.83;;
54157;SDS011;40065;49.894;10.358;2023-06-22T19:49:10;8.67;;;3.33;;
54157;SDS011;40065;49.894;10.358;2023-06-22T19:54:12;12.38;;;3.72;;
54157;SDS011;40065;49.894;10.358;2023-06-22T19:59:16;10.75;;;3.78;;
54157;SDS011;40065;49.894;10.358;2023-06-22T20:04:24;9.18;;;3.65;;
54157;SDS011;40065;49.894;10.358;2023-06-22T20:09:26;12.07;;;4.20;;
54157;SDS011;40065;49.894;10.358;2023-06-22T20:14:34;8.90;;;3.95;;
54157;SDS011;40065;49.894;10.358;2023-06-22T20:19:36;15.27;;;4.53;;
54157;SDS011;40065;49.894;10.358;2023-06-22T20:24:42;11.45;;;4.65;;
54157;SDS011;40065;49.894;10.358;2023-06-22T20:29:44;14.18;;;3.95;;
54157;SDS011;40065;49.894;10.358;2023-06-22T20:34:46;10.15;;;3.05;;
54157;SDS011;40065;49.894;10.358;2023-06-22T20:39:49;10.77;;;3.25;;
54157;SDS011;40065;49.894;10.358;2023-06-22T20:44:52;11.20;;;4.25;;
54157;SDS011;40065;49.894;10.358;2023-06-22T20:49:54;10.23;;;4.75;;
54157;SDS011;40065;49.894;10.358;2023-06-22T20:55:00;11.32;;;4.47;;
54157;SDS011;40065;49.894;10.358;2023-06-22T21:00:02;11.10;;;4.20;;
54157;SDS011;40065;49.894;10.358;2023-06-22T21:05:07;11.10;;;4.40;;
54157;SDS011;40065;49.894;10.358;2023-06-22T21:10:09;9.95;;;4.47;;
54157;SDS011;40065;49.894;10.358;2023-06-22T21:15:11;12.70;;;4.55;;
54157;SDS011;40065;49.894;10.358;2023-06-22T21:20:13;9.50;;;3.85;;
54157;SDS011;40065;49.894;10.358;2023-06-22T21:25:15;9.98;;;4.40;;
54157;SDS011;40065;49.894;10.358;2023-06-22T21:30:17;7.50;;;3.60;;
54157;SDS011;40065;49.894;10.358;2023-06-22T21:35:19;10.43;;;4.68;;
54157;SDS011;40065;49.894;10.358;2023-06-22T21:40:21;10.88;;;4.30;;
54157;SDS011;40065;49.894;10.358;2023-06-22T21:45:23;5.80;;;3.40;;
54157;SDS011;40065;49.894;10.358;2023-06-22T21:50:25;9.60;;;3.90;;
54157;SDS011;40065;49.894;10.358;2023-06-22T21:55:28;9.60;;;4.20;;
54157;SDS011;40065;49.894;10.358;2023-06-22T22:00:30;7.95;;;4.00;;
54157;SDS011;40065;49.894;10.358;2023-06-22T22:05:35;13.20;;;3.70;;
54157;SDS011;40065;49.894;10.358;2023-06-22T22:10:39;9.35;;;4.55;;
54157;SDS011;40065;49.894;10.358;2023-06-22T22:15:41;13.63;;;4.43;;
54157;SDS011;40065;49.894;10.358;2023-06-22T22:20:43;12.90;;;4.28;;
54157;SDS011;40065;49.894;10.358;2023-06-22T22:25:45;12.73;;;5.05;;
54157;SDS011;40065;49.894;10.358;2023-06-22T22:30:48;16.53;;;4.87;;
54157;SDS011;40065;49.894;10.358;2023-06-22T22:35:51;12.80;;;4.63;;
54157;SDS011;40065;49.894;10.358;2023-06-22T22:40:53;12.93;;;4.97;;
54157;SDS011;40065;49.894;10.358;2023-06-22T22:45:55;10.98;;;4.63;;
54157;SDS011;40065;49.894;10.358;2023-06-22T22:56:01;9.25;;;4.28;;
54157;SDS011;40065;49.894;10.358;2023-06-22T23:01:04;12.38;;;4.22;;
54157;SDS011;40065;49.894;10.358;2023-06-22T23:06:07;10.35;;;4.30;;
54157;SDS011;40065;49.894;10.358;2023-06-22T23:11:09;13.95;;;4.45;;
54157;SDS011;40065;49.894;10.358;2023-06-22T23:16:11;10.20;;;4.00;;
54157;SDS011;40065;49.894;10.358;2023-06-22T23:21:13;12.23;;;4.80;;
54157;SDS011;40065;49.894;10.358;2023-06-22T23:26:15;7.32;;;3.63;;
54157;SDS011;40065;49.894;10.358;2023-06-22T23:31:17;7.45;;;3.33;;
54157;SDS011;40065;49.894;10.358;2023-06-22T23:36:20;5.55;;;2.97;;
54157;SDS011;40065;49.894;10.358;2023-06-22T23:41:21;6.90;;;2.80;;
54157;SDS011;40065;49.894;10.358;2023-06-22T23:46:27;9.63;;;2.38;;
54157;SDS011;40065;49.894;10.358;2023-06-22T23:51:32;5.30;;;1.20;;
54157;SDS011;40065;49.894;10.358;2023-06-22T23:56:38;3.17;;;0.90;;
